Time;durP1;ratioP1;P1;durP2;ratioP2;P2;SDS_P1;SDS_P2;PMS_P1;PMS_P2;Temp;Humidity;BMP_temperature;BMP_pressure;BME280_temperature;BME280_humidity;BME280_pressure;Samples;Min_cycle;Max_cycle;Signal;HPM_P1;HPM_P2
2022/04/16 00:00:47;;;;;;;28.23;19.08;;;;;;;7.72;100.00;102871.97;5063286;28;20388;-66
2022/04/16 00:03:12;;;;;;;28.27;18.75;;;;;;;7.66;100.00;102870.88;5062988;28;20028;-66
2022/04/16 00:05:38;;;;;;;27.80;18.38;;;;;;;7.57;100.00;102865.16;5062121;28;20527;-66
2022/04/16 00:08:09;;;;;;;27.88;19.38;;;;;;;7.49;100.00;102863.88;5063282;28;20076;-66
2022/04/16 00:10:36;;;;;;;29.02;19.50;;;;;;;7.47;100.00;102868.13;5061327;28;20029;-67
2022/04/16 00:13:01;;;;;;;29.08;19.52;;;;;;;7.36;100.00;102872.88;5063229;28;20438;-65
2022/04/16 00:15:27;;;;;;;29.90;18.92;;;;;;;7.33;100.00;102871.00;5060820;28;20057;-65
2022/04/16 00:17:53;;;;;;;29.23;19.65;;;;;;;7.31;100.00;102870.03;5064486;28;20039;-65
2022/04/16 00:20:19;;;;;;;28.40;19.25;;;;;;;7.22;100.00;102866.03;5061722;28;20105;-66
2022/04/16 00:22:44;;;;;;;29.88;20.58;;;;;;;7.24;100.00;102872.28;5063147;28;20515;-65
2022/04/16 00:25:11;;;;;;;28.75;20.25;;;;;;;7.22;100.00;102869.53;5062947;28;20040;-66
2022/04/16 00:27:37;;;;;;;29.40;20.40;;;;;;;7.15;100.00;102867.47;5061666;28;20025;-65
2022/04/16 00:30:03;;;;;;;29.55;20.58;;;;;;;7.15;100.00;102875.34;5063517;28;20489;-65
2022/04/16 00:32:29;;;;;;;28.38;19.58;;;;;;;7.10;100.00;102866.31;5060946;28;20110;-65
2022/04/16 00:34:54;;;;;;;29.30;20.42;;;;;;;7.11;100.00;102874.28;5055225;28;20476;-65
2022/04/16 00:37:19;;;;;;;29.70;20.67;;;;;;;7.06;100.00;102877.50;5063559;28;20066;-65
2022/04/16 00:39:45;;;;;;;29.15;21.00;;;;;;;7.11;100.00;102876.91;5062012;28;20047;-65
2022/04/16 00:42:11;;;;;;;31.40;21.83;;;;;;;7.05;100.00;102875.69;5060829;28;20025;-65
2022/04/16 00:44:36;;;;;;;29.95;22.05;;;;;;;7.05;100.00;102876.59;5062937;28;20525;-65
2022/04/16 00:47:01;;;;;;;30.52;20.63;;;;;;;7.12;100.00;102875.16;5061028;28;20467;-65
2022/04/16 00:49:27;;;;;;;31.67;22.48;;;;;;;7.17;100.00;102881.59;5064166;28;20455;-66
2022/04/16 00:51:52;;;;;;;31.08;22.10;;;;;;;7.09;100.00;102875.00;5060866;28;20113;-66
2022/04/16 00:54:18;;;;;;;31.88;22.13;;;;;;;7.07;100.00;102880.19;5063318;28;20029;-66
2022/04/16 00:56:44;;;;;;;31.02;22.67;;;;;;;7.10;100.00;102874.19;5062188;28;20059;-66
2022/04/16 00:59:10;;;;;;;31.27;22.55;;;;;;;7.09;100.00;102872.38;5061627;28;20361;-65
2022/04/16 01:01:35;;;;;;;31.38;22.80;;;;;;;7.02;100.00;102875.53;5063273;28;20115;-65
2022/04/16 01:04:01;;;;;;;31.60;22.48;;;;;;;6.96;100.00;102876.09;5060578;28;20043;-66
2022/04/16 01:06:42;;;;;;;30.92;23.02;;;;;;;6.98;100.00;102874.47;5064264;28;20024;-65
2022/04/16 01:09:08;;;;;;;32.55;23.17;;;;;;;6.87;100.00;102875.66;5061540;28;20464;-66
2022/04/16 01:11:36;;;;;;;33.65;23.95;;;;;;;6.83;100.00;102874.59;5063143;28;20518;-65
2022/04/16 01:14:02;;;;;;;33.05;24.27;;;;;;;6.83;100.00;102877.22;5060739;28;20423;-66
2022/04/16 01:16:29;;;;;;;32.70;23.70;;;;;;;6.79;100.00;102877.88;5064037;28;20103;-66
2022/04/16 01:18:55;;;;;;;33.58;24.55;;;;;;;6.75;100.00;102875.91;5060276;28;20078;-66
2022/04/16 01:21:20;;;;;;;31.95;23.83;;;;;;;6.70;100.00;102874.75;5065885;28;20024;-66
2022/04/16 01:23:46;;;;;;;34.30;24.73;;;;;;;6.70;100.00;102877.38;5065234;28;20024;-67
2022/04/16 01:26:12;;;;;;;33.33;24.70;;;;;;;6.66;100.00;102881.59;5065415;28;20025;-66
2022/04/16 01:28:37;;;;;;;32.33;24.52;;;;;;;6.65;100.00;102885.03;5066315;28;20031;-66
2022/04/16 01:31:02;;;;;;;34.75;24.80;;;;;;;6.59;100.00;102885.59;5064308;28;20025;-66
2022/04/16 01:33:28;;;;;;;32.85;24.90;;;;;;;6.54;100.00;102886.19;5067175;28;20107;-67
2022/04/16 01:35:56;;;;;;;32.35;23.85;;;;;;;6.50;100.00;102889.50;5063826;28;20021;-66
2022/04/16 01:38:25;;;;;;;34.83;24.63;;;;;;;6.45;100.00;102887.50;5066905;28;20035;-66
2022/04/16 01:40:52;;;;;;;32.65;24.58;;;;;;;6.39;100.00;102892.44;5064117;28;20036;-66
2022/04/16 01:43:18;;;;;;;33.78;25.17;;;;;;;6.36;100.00;102899.25;5066123;28;20481;-66
2022/04/16 01:45:43;;;;;;;33.88;25.30;;;;;;;6.40;100.00;102894.22;5065195;28;20044;-66
2022/04/16 01:48:08;;;;;;;34.17;24.98;;;;;;;6.28;100.00;102902.34;5064546;28;20029;-66
2022/04/16 01:50:34;;;;;;;35.47;25.95;;;;;;;6.21;100.00;102902.84;5066386;28;20082;-66
2022/04/16 01:52:59;;;;;;;34.33;25.83;;;;;;;6.21;100.00;102896.69;5063587;28;20021;-66
2022/04/16 01:55:24;;;;;;;35.00;25.10;;;;;;;6.15;100.00;102891.09;5066508;28;20031;-66
2022/04/16 01:57:50;;;;;;;33.53;25.45;;;;;;;6.08;100.00;102897.72;5063854;28;20079;-66
2022/04/16 02:00:16;;;;;;;34.92;26.00;;;;;;;6.08;100.00;102900.34;5065545;28;20033;-66
2022/04/16 02:02:42;;;;;;;35.53;25.60;;;;;;;6.03;100.00;102897.47;5065292;28;20025;-66
2022/04/16 02:05:09;;;;;;;35.05;25.10;;;;;;;6.00;100.00;102897.31;5064209;28;20441;-66
2022/04/16 02:07:34;;;;;;;34.22;25.88;;;;;;;5.95;100.00;102898.72;5066208;28;20025;-66
2022/04/16 02:10:00;;;;;;;35.63;26.13;;;;;;;5.93;100.00;102898.63;5063114;28;20071;-66
2022/04/16 02:12:26;;;;;;;35.75;26.35;;;;;;;5.93;100.00;102890.75;5063341;28;20024;-66
2022/04/16 02:14:52;;;;;;;36.65;26.90;;;;;;;5.91;100.00;102900.28;5065754;28;20352;-66
2022/04/16 02:17:17;;;;;;;36.72;26.80;;;;;;;5.89;100.00;102899.28;5063951;28;20020;-66
2022/04/16 02:19:43;;;;;;;35.88;26.50;;;;;;;5.84;100.00;102899.84;5064929;28;20063;-66
2022/04/16 02:22:08;;;;;;;35.33;26.77;;;;;;;5.85;100.00;102905.16;5065149;28;20075;-66
2022/04/16 02:24:34;;;;;;;36.20;27.67;;;;;;;5.91;100.00;102896.75;5063222;28;20075;-66
2022/04/16 02:26:59;;;;;;;37.08;27.08;;;;;;;5.84;100.00;102906.00;5066618;28;20027;-66
2022/04/16 02:29:25;;;;;;;36.63;27.65;;;;;;;5.84;100.00;102908.63;5062503;28;20021;-65
2022/04/16 02:31:50;;;;;;;36.88;27.20;;;;;;;5.89;100.00;102904.53;5064413;28;20032;-65
2022/04/16 02:34:18;;;;;;;36.53;27.83;;;;;;;5.94;100.00;102910.97;5064245;28;20017;-65
2022/04/16 02:36:43;;;;;;;36.38;26.85;;;;;;;5.88;100.00;102902.75;5064351;28;20369;-65
2022/04/16 02:39:09;;;;;;;36.30;27.67;;;;;;;5.82;100.00;102915.50;5064609;28;20036;-65
2022/04/16 02:41:35;;;;;;;37.20;27.42;;;;;;;5.84;100.00;102908.63;5063138;28;20035;-66
2022/04/16 02:44:01;;;;;;;35.00;27.17;;;;;;;5.76;100.00;102908.19;5065626;28;20031;-66
2022/04/16 02:49:10;;;;;;;35.95;26.90;;;;;;;5.65;100.00;102913.63;5063509;28;20451;-65
2022/04/16 02:51:36;;;;;;;36.83;27.88;;;;;;;5.64;100.00;102914.47;5065460;28;20017;-65
2022/04/16 02:54:02;;;;;;;35.65;26.33;;;;;;;5.57;100.00;102910.56;5062159;28;20434;-65
2022/04/16 02:56:27;;;;;;;36.58;27.58;;;;;;;5.57;100.00;102911.47;5066005;28;20024;-66
2022/04/16 02:58:52;;;;;;;36.53;26.88;;;;;;;5.61;100.00;102916.88;5062320;28;20052;-66
2022/04/16 03:01:18;;;;;;;36.10;27.80;;;;;;;5.62;100.00;102923.97;5064558;28;20490;-65
2022/04/16 03:03:43;;;;;;;36.03;27.67;;;;;;;5.55;100.00;102931.47;5063870;28;20020;-66
2022/04/16 03:06:09;;;;;;;37.78;28.50;;;;;;;5.58;100.00;102923.78;5063073;28;20475;-65
2022/04/16 03:08:36;;;;;;;36.92;28.00;;;;;;;5.54;100.00;102924.41;5064760;28;20025;-65
2022/04/16 03:11:04;;;;;;;37.38;28.38;;;;;;;5.47;100.00;102924.88;5061976;28;20558;-66
2022/04/16 03:13:29;;;;;;;37.45;28.67;;;;;;;5.39;100.00;102932.31;5065410;28;20099;-66
2022/04/16 03:18:39;;;;;;;38.38;29.33;;;;;;;5.37;100.00;102930.41;5062890;28;20395;-66
2022/04/16 03:21:05;;;;;;;37.75;28.80;;;;;;;5.30;100.00;102930.84;5065079;28;20021;-66
2022/04/16 03:23:30;;;;;;;38.70;29.17;;;;;;;5.27;100.00;102930.66;5061590;28;20020;-65
2022/04/16 03:26:00;;;;;;;37.22;28.73;;;;;;;5.24;100.00;102932.31;5064816;28;20021;-66
2022/04/16 03:28:26;;;;;;;37.67;29.08;;;;;;;5.15;100.00;102931.75;5061628;28;20053;-67
2022/04/16 03:30:53;;;;;;;38.17;28.85;;;;;;;5.13;100.00;102933.38;5064485;28;20051;-67
2022/04/16 03:33:19;;;;;;;37.85;29.08;;;;;;;5.07;100.00;102938.25;5062419;28;20029;-68
2022/04/16 03:35:44;;;;;;;38.80;29.17;;;;;;;5.07;100.00;102930.41;5063442;28;20075;-66
2022/04/16 03:38:10;;;;;;;39.33;30.67;;;;;;;5.05;100.00;102934.63;5062330;28;20036;-66
2022/04/16 03:40:36;;;;;;;38.28;30.05;;;;;;;5.04;100.00;102932.84;5061594;28;20108;-67
2022/04/16 03:43:02;;;;;;;39.30;29.08;;;;;;;5.00;100.00;102938.69;5064523;28;20073;-66
2022/04/16 03:45:34;;;;;;;40.83;30.98;;;;;;;4.97;100.00;102930.66;5061113;28;20052;-67
2022/04/16 03:48:02;;;;;;;38.60;30.45;;;;;;;4.92;100.00;102938.22;5061385;28;20373;-66
2022/04/16 03:50:30;;;;;;;38.83;30.02;;;;;;;4.84;100.00;102934.25;5061635;28;20097;-66
2022/04/16 03:52:59;;;;;;;38.95;30.70;;;;;;;4.84;100.00;102929.00;5064336;28;20036;-66
2022/04/16 04:00:56;;;;;;;40.65;30.88;;;;;;;4.82;100.00;102936.78;5061149;28;20443;-67
2022/04/16 04:03:22;;;;;;;40.17;31.75;;;;;;;4.77;100.00;102932.06;5063868;28;20025;-67
2022/04/16 04:05:49;;;;;;;41.72;32.42;;;;;;;4.75;100.00;102939.81;5062562;28;20450;-66
2022/04/16 04:08:16;;;;;;;42.08;31.85;;;;;;;4.73;100.00;102941.44;5062844;28;20032;-66
2022/04/16 04:10:42;;;;;;;42.65;32.17;;;;;;;4.72;100.00;102942.25;5063095;28;20462;-66
2022/04/16 04:13:07;;;;;;;43.00;32.50;;;;;;;4.62;100.00;102947.75;5061857;28;20166;-66
2022/04/16 04:15:33;;;;;;;43.03;32.70;;;;;;;4.56;100.00;102942.09;5064177;28;20082;-66
2022/04/16 04:17:59;;;;;;;42.10;32.20;;;;;;;4.48;100.00;102947.75;5061036;28;20025;-66
2022/04/16 04:20:26;;;;;;;43.03;33.40;;;;;;;4.45;100.00;102944.06;5064213;28;20129;-66
2022/04/16 04:22:52;;;;;;;42.97;33.10;;;;;;;4.42;100.00;102943.88;5061533;28;20043;-66
2022/04/16 04:25:17;;;;;;;41.97;32.92;;;;;;;4.42;100.00;102954.34;5063355;28;20029;-66
2022/04/16 04:27:43;;;;;;;41.97;32.22;;;;;;;4.40;100.00;102949.00;5062653;28;20387;-66
2022/04/16 04:30:09;;;;;;;42.75;32.45;;;;;;;4.34;100.00;102956.50;5061602;28;20029;-66
2022/04/16 04:32:35;;;;;;;44.15;34.53;;;;;;;4.29;100.00;102960.50;5064009;28;20025;-66
2022/04/16 04:35:02;;;;;;;45.92;34.13;;;;;;;4.28;100.00;102967.47;5060959;28;20053;-66
2022/04/16 04:37:27;;;;;;;46.30;35.33;;;;;;;4.30;100.00;102960.59;5059217;28;20024;-66
2022/04/16 04:39:52;;;;;;;44.28;33.67;;;;;;;4.27;100.00;102970.00;5063729;28;20028;-66
2022/04/16 04:42:26;;;;;;;43.67;33.78;;;;;;;4.22;100.00;102968.78;5062063;28;20047;-66
2022/04/16 04:44:52;;;;;;;45.78;34.30;;;;;;;4.15;100.00;102971.00;5063070;28;20128;-66
2022/04/16 04:47:18;;;;;;;43.55;33.55;;;;;;;4.14;100.00;102974.44;5062112;28;20116;-66
2022/04/16 04:49:43;;;;;;;45.65;35.72;;;;;;;4.17;100.00;102976.34;5062008;28;20466;-65
2022/04/16 04:52:09;;;;;;;46.17;34.53;;;;;;;4.23;100.00;102981.97;5062942;28;20033;-65
2022/04/16 04:54:34;;;;;;;45.33;34.83;;;;;;;4.17;100.00;102979.84;5060906;28;20035;-65
2022/04/16 04:56:59;;;;;;;47.28;37.35;;;;;;;4.20;100.00;102979.16;5067826;28;20426;-66
2022/04/16 04:59:25;;;;;;;45.13;35.40;;;;;;;4.19;100.00;102974.72;5064679;28;20514;-65
2022/04/16 05:01:50;;;;;;;47.70;36.03;;;;;;;4.23;100.00;102995.06;5066894;28;20024;-65
2022/04/16 05:04:16;;;;;;;47.00;36.45;;;;;;;4.19;100.00;102983.50;5065887;28;20017;-65
2022/04/16 05:06:41;;;;;;;46.25;35.80;;;;;;;4.24;100.00;102994.25;5065400;28;20021;-66
2022/04/16 05:09:07;;;;;;;47.38;36.95;;;;;;;4.28;100.00;102992.72;5067271;28;20359;-66
2022/04/16 05:11:32;;;;;;;45.88;36.92;;;;;;;4.32;100.00;102989.50;5064163;28;20052;-66
2022/04/16 05:13:58;;;;;;;48.00;37.90;;;;;;;4.36;100.00;102995.03;5067875;28;20024;-65
2022/04/16 05:16:23;;;;;;;47.95;36.90;;;;;;;4.39;100.00;102996.94;5063811;28;20527;-65
2022/04/16 05:18:48;;;;;;;48.63;37.60;;;;;;;4.45;100.00;102996.44;5066051;28;20062;-65
2022/04/16 05:21:14;;;;;;;47.92;38.13;;;;;;;4.45;100.00;102997.34;5066012;28;20115;-65
2022/04/16 05:23:40;;;;;;;50.83;38.90;;;;;;;4.48;100.00;102992.28;5065007;28;20105;-66
2022/04/16 05:26:08;;;;;;;49.83;38.58;;;;;;;4.53;100.00;103005.69;5066712;28;20051;-65
2022/04/16 05:28:33;;;;;;;50.35;40.15;;;;;;;4.60;100.00;103001.75;5064329;28;20029;-65
2022/04/16 05:31:00;;;;;;;52.10;41.50;;;;;;;4.61;100.00;103009.69;5067266;28;20047;-65
2022/04/16 05:36:09;;;;;;;51.05;40.50;;;;;;;4.73;100.00;103009.56;5064526;28;20075;-66
2022/04/16 05:38:35;;;;;;;50.10;40.47;;;;;;;4.79;100.00;103006.41;5066698;28;20072;-66
2022/04/16 05:41:01;;;;;;;51.70;40.42;;;;;;;4.85;100.00;103009.44;5063576;28;20086;-66
2022/04/16 05:43:27;;;;;;;50.28;40.25;;;;;;;4.96;100.00;103013.63;5066777;28;20035;-65
2022/04/16 05:45:52;;;;;;;50.40;39.25;;;;;;;5.00;100.00;103006.84;5064207;28;20136;-66
2022/04/16 05:48:18;;;;;;;50.15;40.38;;;;;;;5.04;100.00;103011.50;5065451;28;20541;-65
2022/04/16 05:50:44;;;;;;;50.38;39.78;;;;;;;5.10;100.00;103017.09;5065738;28;20063;-65
2022/04/16 05:53:14;;;;;;;50.45;39.92;;;;;;;5.16;100.00;103017.47;5064593;28;20048;-66
2022/04/16 05:55:45;;;;;;;50.42;40.00;;;;;;;5.22;100.00;103019.56;5065849;28;20382;-67
2022/04/16 05:58:11;;;;;;;48.58;39.20;;;;;;;5.26;100.00;103026.81;5064167;28;20018;-67
2022/04/16 06:00:37;;;;;;;49.55;40.08;;;;;;;5.30;100.00;103035.75;5066682;28;20028;-67
2022/04/16 06:03:04;;;;;;;50.03;40.47;;;;;;;5.38;100.00;103030.16;5063172;28;20480;-67
2022/04/16 06:05:31;;;;;;;49.92;40.60;;;;;;;5.45;100.00;103038.44;5063150;28;20021;-66
2022/04/16 06:07:56;;;;;;;51.10;39.65;;;;;;;5.53;100.00;103040.69;5066664;28;20375;-67
2022/04/16 06:10:22;;;;;;;51.88;41.53;;;;;;;5.62;100.00;103055.16;5063971;28;20028;-67
2022/04/16 06:12:47;;;;;;;52.97;41.28;;;;;;;5.66;100.00;103049.28;5064954;28;20154;-66
2022/04/16 06:15:12;;;;;;;51.35;40.67;;;;;;;5.75;100.00;103047.19;5065203;28;20390;-67
2022/04/16 06:17:38;;;;;;;49.58;39.92;;;;;;;5.81;100.00;103057.16;5063760;28;20025;-66
2022/04/16 06:20:04;;;;;;;50.88;40.90;;;;;;;5.89;100.00;103051.53;5066233;28;20020;-67
2022/04/16 06:22:30;;;;;;;50.45;40.47;;;;;;;5.98;100.00;103055.56;5062970;28;20029;-67
2022/04/16 06:24:55;;;;;;;48.38;39.42;;;;;;;6.03;100.00;103065.53;5065661;28;20360;-67
2022/04/16 06:27:20;;;;;;;51.75;41.17;;;;;;;6.12;100.00;103065.16;5063716;28;20042;-66
2022/04/16 06:29:45;;;;;;;50.05;40.35;;;;;;;6.20;100.00;103057.72;5064396;28;20033;-66
2022/04/16 06:32:11;;;;;;;50.95;40.85;;;;;;;6.28;100.00;103062.59;5064944;28;20024;-67
2022/04/16 06:34:36;;;;;;;48.97;38.90;;;;;;;6.41;100.00;103058.94;5063184;28;20098;-66
2022/04/16 06:37:02;;;;;;;50.00;40.30;;;;;;;6.48;100.00;103054.03;5065918;28;20017;-67
2022/04/16 06:39:28;;;;;;;50.20;39.25;;;;;;;6.58;100.00;103057.28;5062370;28;20044;-67
2022/04/16 06:41:53;;;;;;;50.60;41.80;;;;;;;6.69;100.00;103049.09;5065035;28;20111;-66
2022/04/16 06:44:19;;;;;;;51.97;39.95;;;;;;;6.76;100.00;103062.63;5063417;28;20131;-66
2022/04/16 06:46:45;;;;;;;48.20;39.22;;;;;;;6.87;100.00;103060.59;5063901;28;20029;-66
2022/04/16 06:49:11;;;;;;;49.40;39.58;;;;;;;7.01;100.00;103053.47;5064708;28;20490;-66
2022/04/16 06:51:36;;;;;;;51.00;39.63;;;;;;;7.12;100.00;103059.28;5062221;28;20021;-66
2022/04/16 06:54:01;;;;;;;49.88;38.67;;;;;;;7.19;100.00;103058.81;5065527;28;20012;-66
2022/04/16 06:56:27;;;;;;;48.53;38.97;;;;;;;7.28;100.00;103061.94;5062537;28;20032;-66
2022/04/16 06:58:52;;;;;;;49.03;39.05;;;;;;;7.36;100.00;103064.97;5063423;28;20037;-66
2022/04/16 07:01:17;;;;;;;50.63;38.78;;;;;;;7.43;100.00;103053.06;5063422;28;20151;-66
2022/04/16 07:03:42;;;;;;;50.70;38.13;;;;;;;7.60;100.00;103057.47;5063327;28;20108;-66
2022/04/16 07:06:08;;;;;;;50.35;39.13;;;;;;;7.75;100.00;103062.63;5064684;28;20024;-66
2022/04/16 07:08:33;;;;;;;49.35;38.50;;;;;;;7.83;100.00;103063.00;5062259;28;20036;-66
2022/04/16 07:10:58;;;;;;;48.78;37.63;;;;;;;7.90;100.00;103065.13;5065201;28;20077;-66
2022/04/16 07:13:24;;;;;;;45.95;36.28;;;;;;;8.05;100.00;103061.44;5062363;28;20079;-66
2022/04/16 07:15:49;;;;;;;47.17;36.90;;;;;;;8.12;100.00;103063.56;5064041;28;20507;-66
2022/04/16 07:18:15;;;;;;;45.65;34.22;;;;;;;8.19;100.00;103056.03;5063015;28;20377;-66
2022/04/16 07:20:41;;;;;;;45.03;34.45;;;;;;;8.32;100.00;103060.16;5062801;28;20598;-66
2022/04/16 07:23:06;;;;;;;46.65;35.05;;;;;;;8.36;100.00;103070.03;5064812;28;20035;-66
2022/04/16 07:25:33;;;;;;;44.63;34.00;;;;;;;8.51;100.00;103067.28;5061443;28;20029;-66
2022/04/16 07:27:58;;;;;;;42.15;31.45;;;;;;;8.60;100.00;103064.19;5063372;28;20398;-66
2022/04/16 07:30:23;;;;;;;41.95;31.13;;;;;;;8.64;100.00;103055.59;5062561;28;20041;-66
2022/04/16 07:32:50;;;;;;;42.08;31.15;;;;;;;8.65;100.00;103061.75;5063576;28;20060;-66
2022/04/16 07:35:16;;;;;;;42.38;31.23;;;;;;;8.73;100.00;103071.84;5063169;28;20053;-66
2022/04/16 07:37:41;;;;;;;42.47;32.20;;;;;;;8.86;100.00;103070.69;5062512;28;20025;-66
2022/04/16 07:40:07;;;;;;;40.53;30.88;;;;;;;8.95;100.00;103070.22;5064243;28;20158;-66
2022/04/16 07:42:32;;;;;;;39.42;29.38;;;;;;;9.00;100.00;103075.69;5061485;28;20025;-66
2022/04/16 07:44:57;;;;;;;38.55;28.88;;;;;;;8.98;100.00;103072.97;5064503;28;20044;-66
2022/04/16 07:47:23;;;;;;;42.05;31.30;;;;;;;9.04;100.00;103075.94;5062542;28;20036;-66
2022/04/16 07:49:48;;;;;;;40.45;31.00;;;;;;;9.16;100.00;103072.03;5063092;28;20040;-66
2022/04/16 07:52:14;;;;;;;41.33;30.98;;;;;;;9.25;100.00;103077.75;5063609;28;20105;-67
2022/04/16 07:54:39;;;;;;;40.38;29.13;;;;;;;9.39;100.00;103075.69;5061658;28;20025;-67
2022/04/16 07:57:06;;;;;;;39.25;29.52;;;;;;;9.46;100.00;103082.16;5064565;28;20024;-67
2022/04/16 07:59:32;;;;;;;38.55;28.88;;;;;;;9.65;100.00;103081.25;5060999;28;20070;-67
2022/04/16 08:01:57;;;;;;;38.03;28.88;;;;;;;9.93;100.00;103078.03;5064298;28;20028;-67
2022/04/16 08:04:22;;;;;;;38.40;28.48;;;;;;;10.29;100.00;103075.13;5062161;28;20020;-67
2022/04/16 08:06:48;;;;;;;38.45;27.75;;;;;;;10.61;100.00;103078.22;5061593;28;20044;-67
2022/04/16 08:09:14;;;;;;;37.08;27.83;;;;;;;10.85;100.00;103080.00;5063024;28;20024;-67
2022/04/16 08:11:40;;;;;;;36.50;26.17;;;;;;;11.00;100.00;103067.38;5061663;28;20074;-68
2022/04/16 08:14:05;;;;;;;35.53;26.35;;;;;;;11.08;100.00;103078.25;5064074;28;20032;-67
2022/04/16 08:16:31;;;;;;;34.72;26.15;;;;;;;11.18;100.00;103077.75;5060950;28;20117;-67
2022/04/16 08:18:57;;;;;;;35.42;25.88;;;;;;;11.32;100.00;103071.22;5064142;28;20119;-68
2022/04/16 08:21:25;;;;;;;34.55;24.92;;;;;;;11.28;100.00;103073.69;5062038;28;20024;-67
2022/04/16 08:26:48;;;;;;;34.05;24.38;;;;;;;11.81;100.00;103087.06;5060238;28;20075;-68
2022/04/16 08:29:14;;;;;;;34.35;24.70;;;;;;;12.13;100.00;103080.25;5059738;28;20060;-67
2022/04/16 08:31:39;;;;;;;34.33;24.77;;;;;;;12.27;100.00;103085.09;5065401;28;20491;-68
2022/04/16 08:34:04;;;;;;;34.58;24.65;;;;;;;12.40;100.00;103084.66;5062871;28;20037;-68
2022/04/16 08:36:30;;;;;;;32.60;23.02;;;;;;;12.60;100.00;103080.00;5066430;28;20032;-68
2022/04/16 08:38:55;;;;;;;32.60;22.67;;;;;;;12.88;100.00;103092.34;5063286;28;20040;-68
2022/04/16 08:41:24;;;;;;;32.13;22.92;;;;;;;13.37;100.00;103094.69;5064605;28;20080;-67
2022/04/16 08:43:56;;;;;;;31.77;22.35;;;;;;;14.07;100.00;103093.03;5064181;28;20448;-67
2022/04/16 08:46:21;;;;;;;30.92;21.63;;;;;;;14.59;100.00;103088.09;5064742;28;20407;-67
2022/04/16 08:48:48;;;;;;;30.98;20.75;;;;;;;14.81;100.00;103093.94;5064204;28;20036;-67
2022/04/16 08:51:15;;;;;;;30.65;19.92;;;;;;;14.78;100.00;103094.75;5063573;28;20527;-67
2022/04/16 08:53:41;;;;;;;28.33;19.13;;;;;;;15.01;100.00;103090.81;5064960;28;20064;-67
2022/04/16 08:56:06;;;;;;;28.45;18.90;;;;;;;15.25;100.00;103088.66;5062367;28;20123;-67
2022/04/16 08:58:32;;;;;;;28.35;19.08;;;;;;;15.74;100.00;103093.13;5065805;28;20032;-67
2022/04/16 09:00:59;;;;;;;28.58;18.92;;;;;;;15.90;100.00;103092.59;5062664;28;20033;-67
2022/04/16 09:03:34;;;;;;;26.80;17.33;;;;;;;16.10;96.76;103084.91;5064700;28;20059;-67
2022/04/16 09:05:59;;;;;;;28.73;17.05;;;;;;;15.84;94.37;103081.81;5067514;28;20094;-67
2022/04/16 09:08:31;;;;;;;26.80;17.75;;;;;;;15.32;95.79;103087.03;5064895;28;20430;-67
2022/04/16 09:11:11;;;;;;;26.33;16.65;;;;;;;15.74;96.37;103090.47;5067154;28;20112;-67
2022/04/16 09:13:48;;;;;;;26.20;16.83;;;;;;;16.15;93.39;103085.00;5064302;28;20423;-67
2022/04/16 09:16:14;;;;;;;26.10;15.32;;;;;;;16.87;89.14;103086.13;5066153;28;20031;-67
2022/04/16 09:18:51;;;;;;;24.77;14.35;;;;;;;17.35;82.58;103086.72;5064796;28;20025;-67
2022/04/16 09:21:17;;;;;;;24.95;14.88;;;;;;;16.58;80.31;103093.69;5066176;28;20028;-67
2022/04/16 09:23:49;;;;;;;23.80;13.60;;;;;;;15.78;78.39;103084.31;5065158;28;20075;-67
2022/04/16 09:26:31;;;;;;;24.60;14.00;;;;;;;15.63;84.52;103082.28;5065866;28;20486;-67
2022/04/16 09:29:01;;;;;;;;;;;;;;;15.87;86.67;103081.84;5067333;28;20025;-67
2022/04/16 09:31:30;;;;;;;23.55;13.50;;;;;;;15.53;81.77;103083.88;5064347;28;19919;-67
2022/04/16 09:33:56;;;;;;;25.50;14.60;;;;;;;15.33;83.58;103075.47;5066452;28;20035;-67
2022/04/16 09:36:28;;;;;;;24.77;15.25;;;;;;;15.36;85.49;103085.31;5064945;28;20028;-67
2022/04/16 09:39:07;;;;;;;23.45;13.45;;;;;;;15.82;82.63;103071.09;5066300;28;20055;-67
2022/04/16 09:41:35;;;;;;;25.40;14.65;;;;;;;16.48;82.22;103073.06;5063596;28;20059;-68
2022/04/16 09:44:02;;;;;;;22.83;12.43;;;;;;;17.25;71.39;103079.47;5066826;28;20036;-66
2022/04/16 09:46:29;;;;;;;23.05;12.13;;;;;;;16.63;70.07;103067.97;5063929;28;20071;-67
2022/04/16 09:48:58;;;;;;;22.75;11.93;;;;;;;16.83;72.63;103073.56;5066586;28;20360;-67
2022/04/16 09:51:24;;;;;;;22.10;11.63;;;;;;;17.52;59.43;103062.84;5064803;28;20468;-66
2022/04/16 09:53:52;;;;;;;25.77;11.90;;;;;;;17.94;55.50;103060.63;5065338;28;20021;-66
2022/04/16 09:56:19;;;;;;;22.00;11.25;;;;;;;18.65;48.25;103061.09;5065484;28;20086;-68
2022/04/16 09:58:52;;;;;;;22.70;12.35;;;;;;;19.22;47.86;103068.53;5064517;28;20029;-67
2022/04/16 10:01:20;;;;;;;22.50;10.90;;;;;;;19.60;45.45;103067.72;5065440;28;20103;-66
2022/04/16 10:03:46;;;;;;;20.58;9.95;;;;;;;20.36;40.79;103069.56;5064338;28;20063;-67
2022/04/16 10:06:12;;;;;;;19.45;7.65;;;;;;;20.92;39.98;103068.56;5065895;28;20047;-67
2022/04/16 10:08:39;;;;;;;20.80;9.30;;;;;;;20.71;37.44;103055.19;5063408;28;20033;-67
2022/04/16 10:11:05;;;;;;;20.77;8.50;;;;;;;20.58;38.89;103061.47;5066358;28;20498;-68
2022/04/16 10:13:48;;;;;;;20.02;7.53;;;;;;;20.20;38.50;103060.63;5061927;28;20025;-67
2022/04/16 10:16:21;;;;;;;19.90;8.80;;;;;;;21.12;36.36;103053.22;5064191;28;20542;-67
2022/04/16 10:18:46;;;;;;;20.05;9.80;;;;;;;21.69;36.48;103060.97;5064896;28;20017;-66
2022/04/16 10:21:16;;;;;;;20.05;9.10;;;;;;;21.70;34.13;103052.00;5063563;28;20031;-66
2022/04/16 10:23:41;;;;;;;17.88;7.03;;;;;;;21.92;33.42;103049.13;5065607;28;20060;-67
2022/04/16 10:26:09;;;;;;;19.25;8.38;;;;;;;22.48;33.05;103059.41;5062797;28;20053;-66
2022/04/16 10:29:04;;;;;;;18.92;7.93;;;;;;;23.16;32.29;103051.41;5066300;28;20020;-67
2022/04/16 10:31:32;;;;;;;18.52;7.25;;;;;;;22.02;31.42;103066.09;5060468;28;20033;-67
2022/04/16 10:33:58;;;;;;;17.90;6.25;;;;;;;21.62;31.04;103051.16;5063400;28;20070;-66
2022/04/16 10:36:32;;;;;;;16.85;5.72;;;;;;;21.06;32.46;103054.16;5061476;28;20106;-67
2022/04/16 10:39:11;;;;;;;17.58;6.10;;;;;;;22.09;32.43;103059.75;5064227;28;20035;-66
2022/04/16 10:41:37;;;;;;;17.73;6.30;;;;;;;22.84;30.34;103054.50;5057328;28;20043;-67
2022/04/16 10:44:08;;;;;;;17.83;6.28;;;;;;;23.42;30.93;103056.44;5055851;28;20021;-67
2022/04/16 10:46:43;;;;;;;17.50;6.00;;;;;;;24.16;28.77;103059.78;5058836;28;20513;-68
2022/04/16 10:49:11;;;;;;;17.13;6.10;;;;;;;24.53;28.06;103059.06;5043943;28;20307;-67
2022/04/16 10:51:36;;;;;;;17.40;6.22;;;;;;;24.87;28.00;103050.28;5056704;28;20056;-67
2022/04/16 10:54:24;;;;;;;17.48;6.53;;;;;;;25.39;27.97;103054.56;5057249;28;20048;-68
2022/04/16 10:56:52;;;;;;;18.50;6.10;;;;;;;24.84;27.65;103058.47;5057793;28;20040;-67
2022/04/16 10:59:18;;;;;;;17.55;6.65;;;;;;;24.71;28.29;103053.34;5059879;28;20050;-66
2022/04/16 11:01:53;;;;;;;16.60;5.80;;;;;;;24.09;28.39;103055.41;5059735;28;20519;-66
2022/04/16 11:04:19;;;;;;;16.67;6.05;;;;;;;24.20;29.49;103042.56;5062776;28;20403;-68
2022/04/16 11:06:48;;;;;;;18.33;6.43;;;;;;;24.44;28.07;103048.44;5060045;28;20063;-68
2022/04/16 11:09:17;;;;;;;18.05;6.97;;;;;;;24.50;27.86;103051.03;5060531;28;20025;-67
2022/04/16 11:11:43;;;;;;;15.82;5.95;;;;;;;25.16;26.65;103048.78;5061562;28;20017;-67
2022/04/16 11:14:10;;;;;;;17.45;6.72;;;;;;;25.02;26.02;103049.97;5065271;28;20130;-68
2022/04/16 11:16:43;;;;;;;17.17;6.80;;;;;;;24.49;27.81;103057.34;5062086;28;20025;-67
2022/04/16 11:19:16;;;;;;;18.13;6.90;;;;;;;24.86;28.06;103051.22;5064842;28;20465;-68
2022/04/16 11:21:42;;;;;;;17.90;6.88;;;;;;;25.95;26.65;103049.59;5061571;28;20025;-67
2022/04/16 11:24:08;;;;;;;17.70;6.55;;;;;;;25.96;24.79;103052.28;5064870;28;20390;-67